createdAt,value
2019-06-07T00:00:38.223Z,6.58
2019-06-07T00:02:57.855Z,7.10
2019-06-07T00:05:27.686Z,7.00
2019-06-07T00:08:07.086Z,6.53
2019-06-07T00:10:36.428Z,7.22
2019-06-07T00:12:58.789Z,6.22
2019-06-07T00:15:28.903Z,6.28
2019-06-07T00:17:57.876Z,5.90
2019-06-07T00:20:26.663Z,6.00
2019-06-07T00:22:55.530Z,5.65
2019-06-07T00:25:24.702Z,6.17
2019-06-07T00:27:53.788Z,6.30
2019-06-07T00:30:42.533Z,6.25
2019-06-07T00:32:54.381Z,6.78
2019-06-07T00:35:23.136Z,5.78
2019-06-07T00:37:51.896Z,6.12
2019-06-07T00:40:30.940Z,5.58
2019-06-07T00:42:51.086Z,6.00
2019-06-07T00:45:22.409Z,5.75
2019-06-07T00:47:50.291Z,6.17
2019-06-07T00:50:23.514Z,6.25
2019-06-07T00:55:27.063Z,5.97
2019-06-07T00:57:51.385Z,6.03
2019-06-07T01:00:24.935Z,6.75
2019-06-07T01:02:50.991Z,6.42
2019-06-07T01:05:25.438Z,6.08
2019-06-07T01:07:50.135Z,6.33
2019-06-07T01:10:46.503Z,6.85
2019-06-07T01:12:49.807Z,6.60
2019-06-07T01:15:28.778Z,6.53
2019-06-07T01:18:32.995Z,6.20
2019-06-07T01:20:24.846Z,6.62
2019-06-07T01:22:54.293Z,7.10
2019-06-07T01:25:26.115Z,7.20
2019-06-07T01:27:53.630Z,6.78
2019-06-07T01:30:26.615Z,7.25
2019-06-07T01:32:55.793Z,7.62
2019-06-07T01:35:25.560Z,6.90
2019-06-07T01:37:54.421Z,7.08
2019-06-07T01:40:27.754Z,6.62
2019-06-07T01:42:53.874Z,7.10
2019-06-07T01:45:23.618Z,6.83
2019-06-07T01:47:52.580Z,6.53
2019-06-07T01:50:24.745Z,6.50
2019-06-07T01:52:52.044Z,6.70
2019-06-07T01:55:23.676Z,6.50
2019-06-07T01:57:51.181Z,7.03
2019-06-07T02:00:22.091Z,6.65
2019-06-07T02:02:50.961Z,6.35
2019-06-07T02:05:21.567Z,6.10
2019-06-07T02:07:50.507Z,6.55
2019-06-07T02:10:20.404Z,6.97
2019-06-07T02:12:49.884Z,6.17
2019-06-07T02:15:22.700Z,7.97
2019-06-07T02:17:49.249Z,6.78
2019-06-07T02:20:20.346Z,6.90
2019-06-07T02:22:49.891Z,6.85
2019-06-07T02:25:50.540Z,6.92
2019-06-07T02:27:49.060Z,7.83
2019-06-07T02:30:40.578Z,7.75
2019-06-07T02:32:48.402Z,7.22
2019-06-07T02:35:17.252Z,6.90
2019-06-07T02:37:46.017Z,7.92
2019-06-07T02:40:15.011Z,8.13
2019-06-07T02:42:43.927Z,6.97
2019-06-07T02:45:13.249Z,8.15
2019-06-07T02:47:43.392Z,7.45
2019-06-07T02:50:13.016Z,8.55
2019-06-07T02:52:44.709Z,8.78
2019-06-07T02:55:13.609Z,7.80
2019-06-07T02:57:43.179Z,8.38
2019-06-07T03:00:41.262Z,8.05
2019-06-07T03:02:45.063Z,8.08
2019-06-07T03:05:14.202Z,8.28
2019-06-07T03:10:13.206Z,8.08
2019-06-07T03:12:45.179Z,7.70
2019-06-07T03:15:31.981Z,7.87
2019-06-07T03:17:49.467Z,7.92
2019-06-07T03:20:23.419Z,8.05
2019-06-07T03:22:52.441Z,7.85
2019-06-07T03:25:21.271Z,7.80
2019-06-07T03:27:50.771Z,7.25
2019-06-07T03:30:39.880Z,8.33
2019-06-07T03:32:51.742Z,7.65
2019-06-07T03:35:20.488Z,7.40
2019-06-07T03:37:49.289Z,7.60
2019-06-07T03:40:18.128Z,7.47
2019-06-07T03:42:46.871Z,9.88
2019-06-07T03:45:15.606Z,8.00
2019-06-07T03:47:44.384Z,7.95
2019-06-07T03:50:13.338Z,7.92
2019-06-07T03:52:42.260Z,8.40
2019-06-07T03:55:10.999Z,6.72
2019-06-07T03:58:29.115Z,7.65
2019-06-07T04:00:10.741Z,7.33
2019-06-07T04:02:41.917Z,6.75
2019-06-07T04:05:10.206Z,7.00
2019-06-07T04:07:43.453Z,7.40
2019-06-07T04:10:09.491Z,7.72
2019-06-07T04:12:41.323Z,6.97
2019-06-07T04:15:09.064Z,7.00
2019-06-07T04:20:07.521Z,7.85
2019-06-07T04:22:39.844Z,8.35
2019-06-07T04:25:11.493Z,7.55
2019-06-07T04:27:41.395Z,7.50
2019-06-07T04:30:10.701Z,7.62
2019-06-07T04:32:44.450Z,7.60
2019-06-07T04:35:10.288Z,7.50
2019-06-07T04:37:41.372Z,7.97
2019-06-07T04:40:10.229Z,7.72
2019-06-07T04:42:45.023Z,7.10
2019-06-07T04:45:32.564Z,7.67
2019-06-07T04:47:44.511Z,7.25
2019-06-07T04:50:14.032Z,7.35
2019-06-07T04:52:45.459Z,7.30
2019-06-07T04:55:13.131Z,6.25
2019-06-07T04:57:43.181Z,6.85
2019-06-07T05:00:46.691Z,6.20
2019-06-07T05:02:43.782Z,7.35
2019-06-07T05:05:12.901Z,6.42
2019-06-07T05:10:11.678Z,6.75
2019-06-07T05:12:44.189Z,6.67
2019-06-07T05:15:11.232Z,6.15
2019-06-07T05:17:43.458Z,6.22
2019-06-07T05:20:11.484Z,6.72
2019-06-07T05:22:45.079Z,6.97
2019-06-07T05:25:12.329Z,7.83
2019-06-07T05:27:46.312Z,7.90
2019-06-07T05:30:57.847Z,7.67
2019-06-07T05:32:45.991Z,7.62
2019-06-07T05:35:14.592Z,7.53
2019-06-07T05:37:45.843Z,7.45
2019-06-07T05:40:29.089Z,6.90
2019-06-07T05:42:58.223Z,8.13
2019-06-07T05:45:37.629Z,7.42
2019-06-07T05:48:05.947Z,6.87
2019-06-07T05:50:44.931Z,7.55
2019-06-07T05:53:07.083Z,7.35
2019-06-07T05:55:37.684Z,6.70
2019-06-07T05:58:09.320Z,8.20
2019-06-07T06:00:44.629Z,7.35
2019-06-07T06:03:11.711Z,6.90
2019-06-07T06:05:48.232Z,7.30
2019-06-07T06:08:10.939Z,6.70
2019-06-07T06:10:42.583Z,6.70
2019-06-07T06:13:10.320Z,6.80
2019-06-07T06:18:08.699Z,6.47
2019-06-07T06:21:02.187Z,6.65
2019-06-07T06:23:08.157Z,6.87
2019-06-07T06:28:12.205Z,6.40
2019-06-07T06:30:38.246Z,5.65
2019-06-07T06:33:07.086Z,5.80
2019-06-07T06:35:35.948Z,8.85
2019-06-07T06:38:04.932Z,6.30
2019-06-07T06:43:01.679Z,6.63
2019-06-07T06:45:30.619Z,6.28
2019-06-07T06:50:27.609Z,5.60
2019-06-07T06:55:24.529Z,5.50
2019-06-07T07:00:48.393Z,5.62
2019-06-07T07:05:43.367Z,5.75
2019-06-07T07:08:12.444Z,5.45
2019-06-07T07:13:12.461Z,5.10
2019-06-07T07:15:42.916Z,5.67
2019-06-07T07:18:12.103Z,5.28
2019-06-07T07:20:43.553Z,5.78
2019-06-07T07:23:11.361Z,5.28
2019-06-07T07:28:08.127Z,5.30
2019-06-07T07:30:47.125Z,6.15
2019-06-07T07:33:17.052Z,4.80
2019-06-07T07:36:09.477Z,4.87
2019-06-07T07:38:16.453Z,5.00
2019-06-07T07:43:14.799Z,4.97
2019-06-07T07:45:45.989Z,5.55
2019-06-07T07:48:18.199Z,5.33
2019-06-07T07:50:49.035Z,5.35
2019-06-07T07:53:15.872Z,5.65
2019-06-07T07:55:45.732Z,4.78
2019-06-07T07:58:15.148Z,5.20
2019-06-07T08:03:13.571Z,6.47
2019-06-07T08:08:12.147Z,4.65
2019-06-07T08:13:26.830Z,5.37
2019-06-07T08:15:39.977Z,4.97
2019-06-07T08:18:08.753Z,4.90
2019-06-07T08:23:05.709Z,4.83
2019-06-07T08:25:34.516Z,4.67
2019-06-07T08:30:49.940Z,4.22
2019-06-07T08:33:24.547Z,4.65
2019-06-07T08:40:34.356Z,4.20
2019-06-07T08:43:18.338Z,4.47
2019-06-07T08:45:34.169Z,3.92
2019-06-07T08:48:12.896Z,4.22
2019-06-07T08:50:33.554Z,3.52
2019-06-07T08:53:11.535Z,3.85
2019-06-07T08:55:32.777Z,4.15
2019-06-07T09:00:47.701Z,4.00
2019-06-07T09:03:06.492Z,3.67
2019-06-07T09:05:32.124Z,3.65
2019-06-07T09:08:23.909Z,3.90
2019-06-07T09:10:32.707Z,4.20
2019-06-07T09:13:07.976Z,3.90
2019-06-07T09:15:32.080Z,4.03
2019-06-07T09:20:47.999Z,5.65
2019-06-07T09:23:17.758Z,4.30
2019-06-07T09:25:57.242Z,4.12
2019-06-07T09:28:20.219Z,3.75
2019-06-07T09:30:48.306Z,3.90
2019-06-07T09:33:17.116Z,4.60
2019-06-07T09:35:46.276Z,4.35
2019-06-07T09:38:24.858Z,4.45
2019-06-07T09:40:45.588Z,4.05
2019-06-07T09:45:44.930Z,4.30
2019-06-07T09:48:23.927Z,3.95
2019-06-07T09:50:44.142Z,3.37
2019-06-07T09:53:22.063Z,4.08
2019-06-07T09:55:43.333Z,3.80
2019-06-07T10:00:43.193Z,3.85
2019-06-07T10:03:21.947Z,3.75
2019-06-07T10:05:44.086Z,3.77
2019-06-07T10:09:26.210Z,3.05
2019-06-07T10:10:46.958Z,2.55
2019-06-07T10:13:15.665Z,5.10
2019-06-07T10:15:44.597Z,3.52
2019-06-07T10:18:13.351Z,3.85
2019-06-07T10:20:42.197Z,3.50
2019-06-07T10:23:11.110Z,3.50
2019-06-07T10:25:39.978Z,4.25
2019-06-07T10:28:10.240Z,3.52
2019-06-07T10:30:39.036Z,3.55
2019-06-07T10:33:08.571Z,4.30
2019-06-07T10:35:38.524Z,3.62
2019-06-07T10:38:10.826Z,3.98
2019-06-07T10:40:40.468Z,3.87
2019-06-07T10:43:13.430Z,3.47
2019-06-07T10:45:39.776Z,3.65
2019-06-07T10:48:09.964Z,4.08
2019-06-07T10:50:40.182Z,3.35
2019-06-07T10:53:10.793Z,3.72
2019-06-07T10:55:39.678Z,3.47
2019-06-07T10:58:09.173Z,3.77
2019-06-07T11:00:38.040Z,3.33
2019-06-07T11:03:07.996Z,3.47
2019-06-07T11:05:36.782Z,3.47
2019-06-07T11:08:06.014Z,3.40
2019-06-07T11:10:39.295Z,3.85
2019-06-07T11:13:08.231Z,3.67
2019-06-07T11:15:37.070Z,3.72
2019-06-07T11:18:06.232Z,3.72
2019-06-07T11:20:35.194Z,3.83
2019-06-07T11:23:04.069Z,3.60
2019-06-07T11:25:32.839Z,3.98
2019-06-07T11:28:01.681Z,3.10
2019-06-07T11:30:30.448Z,3.25
2019-06-07T11:32:59.190Z,4.53
2019-06-07T11:35:27.941Z,3.77
2019-06-07T11:37:56.703Z,3.50
2019-06-07T11:40:33.897Z,3.20
2019-06-07T11:42:55.958Z,3.25
2019-06-07T11:45:24.990Z,3.40
2019-06-07T11:47:53.917Z,3.62
2019-06-07T11:50:22.707Z,3.60
2019-06-07T11:52:51.508Z,3.37
2019-06-07T11:55:20.340Z,3.62
2019-06-07T11:57:49.193Z,3.52
2019-06-07T12:00:19.941Z,3.60
2019-06-07T12:02:48.811Z,3.70
2019-06-07T12:05:19.875Z,3.55
2019-06-07T12:07:48.022Z,3.83
2019-06-07T12:10:21.192Z,3.72
2019-06-07T12:12:47.457Z,3.70
2019-06-07T12:15:17.334Z,3.70
2019-06-07T12:17:46.206Z,3.80
2019-06-07T12:20:18.691Z,3.75
2019-06-07T12:22:47.270Z,3.22
2019-06-07T12:25:20.651Z,3.33
2019-06-07T12:27:47.540Z,3.70
2019-06-07T12:30:22.556Z,3.62
2019-06-07T12:32:46.854Z,3.70
2019-06-07T12:35:15.828Z,3.52
2019-06-07T12:37:45.059Z,3.83
2019-06-07T12:40:22.870Z,3.77
2019-06-07T12:42:44.644Z,3.58
2019-06-07T12:45:30.767Z,3.80
2019-06-07T12:47:44.198Z,3.47
2019-06-07T12:50:15.212Z,3.22
2019-06-07T12:52:48.821Z,3.37
2019-06-07T12:55:19.989Z,3.20
2019-06-07T12:57:48.397Z,3.58
2019-06-07T13:00:18.328Z,3.30
2019-06-07T13:02:47.375Z,3.87
2019-06-07T13:05:17.739Z,3.70
2019-06-07T13:07:46.708Z,3.33
2019-06-07T13:10:17.893Z,2.92
2019-06-07T13:12:47.311Z,3.37
2019-06-07T13:15:51.824Z,3.20
2019-06-07T13:18:21.772Z,3.02
2019-06-07T13:20:55.154Z,3.20
2019-06-07T13:23:22.651Z,3.47
2019-06-07T13:25:51.775Z,2.80
2019-06-07T13:28:20.828Z,3.50
2019-06-07T13:30:49.672Z,3.30
2019-06-07T13:33:18.988Z,3.45
2019-06-07T13:35:47.784Z,3.33
2019-06-07T13:38:26.092Z,3.58
2019-06-07T13:40:56.626Z,3.12
2019-06-07T13:43:25.859Z,3.62
2019-06-07T13:45:54.633Z,4.50
2019-06-07T13:48:23.466Z,3.83
2019-06-07T13:50:52.234Z,4.50
2019-06-07T13:53:21.076Z,4.30
2019-06-07T13:55:49.858Z,3.62
2019-06-07T13:58:20.542Z,3.08
2019-06-07T14:00:49.200Z,3.60
2019-06-07T14:03:22.063Z,3.45
2019-06-07T14:05:48.383Z,3.37
2019-06-07T14:08:17.253Z,3.08
2019-06-07T14:10:46.036Z,3.17
2019-06-07T14:13:14.896Z,3.22
2019-06-07T14:15:44.887Z,3.05
2019-06-07T14:18:15.139Z,3.20
2019-06-07T14:20:47.100Z,3.20
2019-06-07T14:23:37.947Z,2.87
2019-06-07T14:25:51.018Z,2.67
2019-06-07T14:28:24.806Z,3.58
2019-06-07T14:30:53.119Z,2.92
2019-06-07T14:33:26.444Z,3.58
2019-06-07T14:35:53.194Z,3.30
2019-06-07T14:38:23.087Z,3.33
2019-06-07T14:40:55.598Z,3.85
2019-06-07T14:43:25.122Z,3.60
2019-06-07T14:45:55.370Z,3.52
2019-06-07T14:48:24.187Z,3.75
2019-06-07T14:50:53.208Z,4.12
2019-06-07T14:53:22.126Z,3.85
2019-06-07T14:55:50.886Z,5.08
2019-06-07T14:58:19.652Z,2.70
2019-06-07T15:00:49.186Z,3.40
2019-06-07T15:03:17.990Z,3.30
2019-06-07T15:05:46.794Z,3.17
2019-06-07T15:08:15.623Z,3.20
2019-06-07T15:10:44.395Z,3.45
2019-06-07T15:13:13.171Z,2.92
2019-06-07T15:15:42.019Z,3.10
2019-06-07T15:18:11.517Z,2.95
2019-06-07T15:20:40.297Z,3.22
2019-06-07T15:23:09.079Z,3.77
2019-06-07T15:25:37.913Z,3.65
2019-06-07T15:28:06.675Z,3.75
2019-06-07T15:30:35.769Z,3.98
2019-06-07T15:33:04.872Z,3.10
2019-06-07T15:35:35.944Z,2.98
2019-06-07T15:38:04.225Z,3.85
2019-06-07T15:40:33.228Z,3.52
2019-06-07T15:43:02.077Z,3.10
2019-06-07T15:45:31.404Z,3.40
2019-06-07T15:48:00.208Z,3.10
2019-06-07T15:50:30.384Z,3.45
2019-06-07T15:52:59.360Z,2.90
2019-06-07T15:55:28.195Z,3.67
2019-06-07T15:57:57.074Z,3.55
2019-06-07T16:00:26.049Z,3.05
2019-06-07T16:02:54.959Z,2.60
2019-06-07T16:05:23.788Z,3.20
2019-06-07T16:07:52.546Z,3.05
2019-06-07T16:10:21.516Z,3.75
2019-06-07T16:13:00.153Z,3.72
2019-06-07T16:15:21.171Z,3.17
2019-06-07T16:17:49.987Z,2.92
2019-06-07T16:20:19.067Z,3.22
2019-06-07T16:22:47.829Z,4.50
2019-06-07T16:25:16.893Z,3.27
2019-06-07T16:27:45.818Z,3.37
2019-06-07T16:30:16.288Z,3.37
2019-06-07T16:32:46.281Z,3.50
2019-06-07T16:35:15.800Z,3.50
2019-06-07T16:37:46.959Z,3.30
2019-06-07T16:40:15.756Z,3.20
2019-06-07T16:42:45.083Z,3.77
2019-06-07T16:45:15.057Z,3.22
2019-06-07T16:47:47.483Z,3.75
2019-06-07T16:50:16.041Z,3.90
2019-06-07T16:52:46.445Z,3.05
2019-06-07T16:55:15.600Z,5.28
2019-06-07T16:57:45.322Z,4.62
2019-06-07T17:00:16.905Z,3.55
2019-06-07T17:02:47.109Z,3.87
2019-06-07T17:05:17.309Z,3.87
2019-06-07T17:07:46.975Z,3.50
2019-06-07T17:10:16.737Z,4.10
2019-06-07T17:12:46.829Z,2.98
2019-06-07T17:15:16.627Z,3.83
2019-06-07T17:17:45.360Z,4.08
2019-06-07T17:20:14.673Z,3.35
2019-06-07T17:22:43.975Z,2.85
2019-06-07T17:25:14.418Z,2.98
2019-06-07T17:27:43.890Z,2.90
2019-06-07T17:30:13.859Z,3.02
2019-06-07T17:32:50.869Z,3.30
2019-06-07T17:35:13.534Z,2.80
2019-06-07T17:37:43.674Z,2.75
2019-06-07T17:40:13.267Z,3.27
2019-06-07T17:42:42.735Z,3.50
2019-06-07T17:45:12.241Z,3.77
2019-06-07T17:47:41.662Z,3.40
2019-06-07T17:50:11.741Z,2.87
2019-06-07T17:52:41.647Z,3.52
2019-06-07T17:55:11.137Z,2.87
2019-06-07T17:57:40.012Z,3.42
2019-06-07T18:00:28.129Z,3.33
2019-06-07T18:02:42.636Z,3.27
2019-06-07T18:05:11.752Z,3.35
2019-06-07T18:07:40.554Z,4.47
2019-06-07T18:10:10.722Z,3.47
2019-06-07T18:12:39.568Z,3.83
2019-06-07T18:15:10.887Z,3.52
2019-06-07T18:17:39.876Z,3.47
2019-06-07T18:20:10.384Z,3.75
2019-06-07T18:22:39.277Z,3.52
2019-06-07T18:25:08.474Z,4.10
2019-06-07T18:27:37.175Z,3.72
2019-06-07T18:32:39.588Z,3.80
2019-06-07T18:35:08.581Z,3.80
2019-06-07T18:37:37.369Z,4.08
2019-06-07T18:40:07.971Z,4.00
2019-06-07T18:42:36.795Z,4.35
2019-06-07T18:47:37.378Z,4.17
2019-06-07T18:52:36.427Z,4.58
2019-06-07T18:55:07.724Z,4.65
2019-06-07T18:57:36.605Z,4.72
2019-06-07T19:02:38.605Z,5.85
2019-06-07T19:05:09.008Z,5.62
2019-06-07T19:07:37.913Z,5.80
2019-06-07T19:10:11.530Z,5.80
2019-06-07T19:12:40.274Z,5.75
2019-06-07T19:15:11.094Z,6.20
2019-06-07T19:17:39.894Z,5.78
2019-06-07T19:20:09.318Z,5.75
2019-06-07T19:22:38.196Z,6.45
2019-06-07T19:27:35.448Z,5.90
2019-06-07T19:32:32.588Z,5.92
2019-06-07T19:35:01.726Z,5.12
2019-06-07T19:37:30.499Z,5.53
2019-06-07T19:40:00.133Z,5.95
2019-06-07T19:42:29.061Z,5.97
2019-06-07T19:45:16.975Z,5.65
2019-06-07T19:47:28.326Z,5.92
2019-06-07T19:52:25.595Z,6.00
2019-06-07T19:54:55.662Z,6.22
2019-06-07T19:57:24.599Z,6.92
2019-06-07T19:59:53.427Z,7.62
2019-06-07T20:02:22.167Z,6.85
2019-06-07T20:04:51.010Z,6.67
2019-06-07T20:07:19.636Z,7.28
2019-06-07T20:09:48.509Z,7.03
2019-06-07T20:12:17.306Z,6.67
2019-06-07T20:14:46.042Z,6.78
2019-06-07T20:17:14.803Z,6.65
2019-06-07T20:19:43.630Z,6.75
2019-06-07T20:22:13.531Z,6.95
2019-06-07T20:24:42.245Z,7.12
2019-06-07T20:27:10.991Z,6.70
2019-06-07T20:29:39.758Z,6.60
2019-06-07T20:32:08.917Z,6.85
2019-06-07T20:34:37.883Z,6.87
2019-06-07T20:37:07.753Z,6.75
2019-06-07T20:39:37.214Z,6.58
2019-06-07T20:42:06.009Z,5.92
2019-06-07T20:44:34.788Z,6.80
2019-06-07T20:47:04.158Z,6.75
2019-06-07T20:49:33.022Z,6.67
2019-06-07T20:52:03.057Z,7.03
2019-06-07T20:54:32.291Z,6.90
2019-06-07T20:57:01.091Z,8.75
2019-06-07T20:59:29.878Z,7.42
2019-06-07T21:01:58.759Z,8.50
2019-06-07T21:06:55.443Z,8.18
2019-06-07T21:09:24.203Z,8.13
2019-06-07T21:11:52.966Z,8.10
2019-06-07T21:14:21.684Z,8.45
2019-06-07T21:16:50.483Z,8.23
2019-06-07T21:19:19.231Z,7.92
2019-06-07T21:21:48.091Z,7.60
2019-06-07T21:24:16.831Z,8.10
2019-06-07T21:26:45.642Z,9.55
2019-06-07T21:29:14.460Z,9.90
2019-06-07T21:31:43.219Z,8.93
2019-06-07T21:34:14.033Z,8.28
2019-06-07T21:36:42.379Z,8.40
2019-06-07T21:39:12.471Z,8.40
2019-06-07T21:41:41.397Z,9.25
2019-06-07T21:44:10.401Z,9.73
2019-06-07T21:46:39.342Z,8.75
2019-06-07T21:49:10.556Z,8.93
2019-06-07T21:51:39.504Z,9.28
2019-06-07T21:54:10.080Z,9.13
2019-06-07T21:56:38.690Z,8.63
2019-06-07T21:59:07.488Z,8.58
2019-06-07T22:01:36.449Z,8.98
2019-06-07T22:04:05.682Z,8.10
2019-06-07T22:06:34.490Z,8.60
2019-06-07T22:09:05.567Z,8.63
2019-06-07T22:11:34.499Z,8.90
2019-06-07T22:14:04.244Z,8.20
2019-06-07T22:16:32.991Z,8.33
2019-06-07T22:19:01.819Z,8.83
2019-06-07T22:21:30.579Z,8.18
2019-06-07T22:23:59.343Z,8.65
2019-06-07T22:26:28.162Z,8.08
2019-06-07T22:28:56.992Z,8.60
2019-06-07T22:31:25.803Z,7.47
2019-06-07T22:33:54.468Z,8.10
2019-06-07T22:36:23.232Z,8.03
2019-06-07T22:38:52.106Z,12.63
2019-06-07T22:41:21.004Z,8.15
2019-06-07T22:43:49.763Z,8.23
2019-06-07T22:46:19.285Z,8.40
2019-06-07T22:48:50.110Z,8.68
2019-06-07T22:51:18.721Z,7.47
2019-06-07T22:53:47.640Z,9.20
2019-06-07T22:56:18.307Z,8.83
2019-06-07T22:58:47.095Z,9.05
2019-06-07T23:01:17.012Z,8.63
2019-06-07T23:03:46.040Z,8.80
2019-06-07T23:06:14.834Z,8.43
2019-06-07T23:08:43.603Z,9.50
2019-06-07T23:11:13.311Z,9.13
2019-06-07T23:13:42.223Z,8.40
2019-06-07T23:16:11.406Z,8.23
2019-06-07T23:18:40.312Z,8.65
2019-06-07T23:21:09.695Z,9.13
2019-06-07T23:23:38.754Z,8.60
2019-06-07T23:26:07.504Z,8.80
2019-06-07T23:28:36.280Z,9.90
2019-06-07T23:31:05.208Z,9.80
2019-06-07T23:33:34.078Z,9.58
2019-06-07T23:36:02.788Z,9.23
2019-06-07T23:38:31.585Z,9.35
2019-06-07T23:41:00.339Z,9.40
2019-06-07T23:43:29.098Z,9.18
2019-06-07T23:45:57.921Z,9.48
2019-06-07T23:48:26.686Z,9.63
2019-06-07T23:50:55.632Z,9.60
2019-06-07T23:53:24.362Z,9.35
2019-06-07T23:55:53.081Z,8.83
2019-06-07T23:58:22.257Z,9.48
